RKJK/KUV METAR and TAF weather

Enter ICAO airport designator
Station Type Date Time Source
RKJK METAR 2019/09/20 19:56 UTC NOAA

RKJK 201956Z AUTO 04006KT 10SM BKN150 19/16 A3000 RMK AO2 SLP163 T01940158 $


Station Type Date Time Source
RKJK Decoded METAR 2019/09/20 19:56 UTC NOAA

Kunsan Ab, Korea, South (RKJK) 35-55N 126-37E 10M
Sep 20, 2019 - 03:56 PM EDT / 2019.09.20 1956 UTC
Wind: from the NE (040 degrees) at 7 MPH (6 KT):0
Visibility: 10 mile(s):0
Sky conditions: mostly cloudy
Temperature: 66.9 F (19.4 C)
Dew Point: 60.4 F (15.8 C)
Relative Humidity: 79%
Pressure (altimeter): 30 in. Hg (1015 hPa)
ob: RKJK 201956Z AUTO 04006KT 10SM BKN150 19/16 A3000 RMK AO2 SLP163 T01940158
cycle: 20

Station Type Date Time Source
RKJK TAF 2019/09/20 15:12 UTC NOAA

TAF RKJK 201500Z 2015/2121 05009KT 9999 FEW160 QNH3000INS
BECMG 2103/2104 06010G15KT 8000 -SHRA SCT015 BKN090 QNH2997INS
BECMG 2108/2109 06010G15KT 4800 -SHRA BKN005 QNH2995INS
TEMPO 2113/2121 07012G20KT TX22/2103Z TN18/2021Z

Example: see airport list